createdAt,value
2022-08-25T00:01:37.860Z,8.60
2022-08-25T00:04:10.281Z,6.13
2022-08-25T00:06:38.444Z,7.75
2022-08-25T00:09:05.728Z,6.78
2022-08-25T00:11:34.028Z,7.43
2022-08-25T00:14:04.900Z,10.05
2022-08-25T00:16:32.413Z,7.28
2022-08-25T00:19:03.189Z,8.77
2022-08-25T00:21:31.781Z,6.72
2022-08-25T00:23:59.679Z,6.60
2022-08-25T00:26:27.552Z,7.03
2022-08-25T00:28:54.256Z,7.10
2022-08-25T00:31:38.500Z,6.18
2022-08-25T00:34:11.601Z,6.32
2022-08-25T00:36:38.567Z,6.33
2022-08-25T00:39:07.353Z,7.32
2022-08-25T00:41:35.380Z,7.72
2022-08-25T00:44:05.232Z,6.53
2022-08-25T00:46:38.969Z,6.90
2022-08-25T00:49:14.689Z,6.50
2022-08-25T00:51:55.102Z,7.10
2022-08-25T00:54:29.925Z,6.35
2022-08-25T00:56:59.138Z,9.95
2022-08-25T00:59:26.873Z,8.30
2022-08-25T01:01:55.050Z,8.10
2022-08-25T01:04:22.124Z,6.60
2022-08-25T01:06:49.242Z,9.88
2022-08-25T01:09:16.675Z,6.85
2022-08-25T01:11:44.783Z,6.85
2022-08-25T01:14:15.960Z,8.23
2022-08-25T01:16:43.740Z,7.63
2022-08-25T01:19:15.499Z,9.23
2022-08-25T01:21:48.077Z,9.25
2022-08-25T01:24:21.216Z,7.95
2022-08-25T01:26:47.725Z,7.83
2022-08-25T01:29:25.265Z,7.40
2022-08-25T01:31:57.351Z,8.93
2022-08-25T01:34:26.496Z,8.73
2022-08-25T01:36:54.435Z,10.55
2022-08-25T01:39:20.924Z,7.97
2022-08-25T01:41:58.594Z,9.38
2022-08-25T01:44:25.833Z,8.00
2022-08-25T01:46:52.913Z,8.85
2022-08-25T01:49:19.264Z,7.90
2022-08-25T01:51:53.405Z,9.70
2022-08-25T01:54:20.298Z,9.07
2022-08-25T01:56:46.995Z,9.05
2022-08-25T01:59:23.953Z,7.07
2022-08-25T02:01:50.562Z,9.07
2022-08-25T02:04:17.035Z,9.20
2022-08-25T02:06:48.141Z,7.90
2022-08-25T02:09:16.777Z,8.50
2022-08-25T02:11:46.470Z,12.65
2022-08-25T02:14:14.032Z,8.07
2022-08-25T02:16:44.647Z,9.80
2022-08-25T02:19:12.020Z,9.13
2022-08-25T02:21:39.396Z,8.63
2022-08-25T02:24:06.938Z,8.45
2022-08-25T02:26:36.144Z,9.82
2022-08-25T02:29:04.031Z,12.77
2022-08-25T02:31:30.453Z,11.70
2022-08-25T02:33:57.207Z,11.30
2022-08-25T02:36:23.832Z,12.65
2022-08-25T02:38:50.721Z,9.55
2022-08-25T02:41:20.917Z,9.60
2022-08-25T02:43:48.568Z,8.55
2022-08-25T02:46:17.910Z,8.35
2022-08-25T02:48:45.131Z,9.18
2022-08-25T02:51:12.378Z,9.82
2022-08-25T02:53:40.504Z,8.50
2022-08-25T02:56:09.723Z,8.23
2022-08-25T02:58:37.253Z,8.57
2022-08-25T03:01:04.861Z,8.27
2022-08-25T03:03:31.466Z,8.30
2022-08-25T03:05:57.867Z,8.83
2022-08-25T03:08:25.171Z,9.90
2022-08-25T03:10:52.056Z,10.43
2022-08-25T03:13:18.681Z,8.57
2022-08-25T03:15:46.144Z,9.18
2022-08-25T03:18:15.864Z,8.20
2022-08-25T03:20:44.481Z,8.10
2022-08-25T03:23:11.280Z,7.78
2022-08-25T03:26:00.631Z,13.02
2022-08-25T03:28:31.130Z,8.93
2022-08-25T03:30:57.564Z,9.10
2022-08-25T03:33:23.942Z,8.10
2022-08-25T03:35:50.402Z,7.28
2022-08-25T03:38:16.958Z,8.07
2022-08-25T03:40:43.348Z,8.38
2022-08-25T03:43:09.699Z,7.83
2022-08-25T03:45:41.364Z,8.55
2022-08-25T03:48:07.890Z,7.10
2022-08-25T03:50:34.590Z,8.20
2022-08-25T03:53:00.977Z,10.00
2022-08-25T03:55:27.606Z,8.93
2022-08-25T03:57:54.641Z,7.57
2022-08-25T04:00:22.853Z,7.78
2022-08-25T04:02:49.553Z,9.13
2022-08-25T04:05:16.071Z,7.85
2022-08-25T04:07:42.463Z,8.23
2022-08-25T04:10:10.401Z,9.57
2022-08-25T04:12:37.622Z,8.07
2022-08-25T04:15:05.580Z,7.97
2022-08-25T04:17:32.329Z,10.00
2022-08-25T04:19:59.345Z,8.73
2022-08-25T04:22:25.799Z,10.15
2022-08-25T04:24:55.232Z,9.70
2022-08-25T04:27:21.575Z,9.50
2022-08-25T04:29:47.987Z,8.70
2022-08-25T04:32:14.443Z,7.03
2022-08-25T04:34:41.383Z,7.85
2022-08-25T04:37:07.882Z,7.60
2022-08-25T04:39:34.320Z,7.43
2022-08-25T04:42:01.450Z,8.13
2022-08-25T04:44:29.013Z,6.83
2022-08-25T04:46:55.535Z,7.10
2022-08-25T04:49:21.925Z,7.60
2022-08-25T04:51:48.303Z,8.82
2022-08-25T04:54:22.300Z,9.57
2022-08-25T04:56:50.352Z,11.57
2022-08-25T04:59:21.222Z,9.13
2022-08-25T05:01:50.110Z,12.57
2022-08-25T05:04:28.262Z,9.15
2022-08-25T05:06:56.677Z,9.88
2022-08-25T05:09:23.805Z,13.63
2022-08-25T05:11:51.921Z,11.75
2022-08-25T05:14:21.602Z,12.65
2022-08-25T05:16:52.052Z,10.85
2022-08-25T05:19:18.706Z,12.55
2022-08-25T05:21:45.061Z,12.63
2022-08-25T05:24:11.454Z,15.73
2022-08-25T05:26:38.327Z,8.68
2022-08-25T05:29:06.143Z,8.13
2022-08-25T05:31:36.334Z,8.73
2022-08-25T05:34:08.832Z,13.00
2022-08-25T05:36:35.761Z,9.43
2022-08-25T05:39:02.244Z,9.43
2022-08-25T05:41:30.611Z,9.10
2022-08-25T05:43:57.660Z,13.23
2022-08-25T05:46:24.628Z,8.20
2022-08-25T05:48:51.887Z,9.73
2022-08-25T05:51:21.495Z,7.75
2022-08-25T05:53:50.657Z,8.35
2022-08-25T05:56:18.313Z,8.68
2022-08-25T05:58:45.803Z,11.67
2022-08-25T06:01:44.937Z,12.35
2022-08-25T06:04:12.851Z,9.25
2022-08-25T06:06:39.635Z,10.98
2022-08-25T06:09:08.550Z,11.65
2022-08-25T06:11:36.166Z,8.63
2022-08-25T06:14:02.641Z,8.95
2022-08-25T06:16:29.178Z,9.00
2022-08-25T06:18:55.578Z,7.40
2022-08-25T06:21:22.003Z,8.95
2022-08-25T06:23:49.199Z,7.83
2022-08-25T06:26:21.297Z,7.93
2022-08-25T06:28:49.322Z,8.23
2022-08-25T06:31:15.796Z,13.98
2022-08-25T06:33:42.918Z,13.90
2022-08-25T06:36:09.677Z,13.43
2022-08-25T06:38:36.694Z,12.85
2022-08-25T06:41:05.517Z,11.93
2022-08-25T06:43:35.539Z,10.38
2022-08-25T06:46:14.359Z,7.00
2022-08-25T06:48:41.500Z,7.80
2022-08-25T06:51:10.220Z,11.82
2022-08-25T06:53:41.334Z,7.53
2022-08-25T06:56:08.338Z,7.25
2022-08-25T06:58:35.339Z,8.15
2022-08-25T07:01:20.024Z,7.27
2022-08-25T07:03:47.511Z,6.43
2022-08-25T07:06:14.870Z,7.93
2022-08-25T07:08:45.870Z,5.68
2022-08-25T07:11:16.319Z,8.73
2022-08-25T07:13:44.684Z,7.37
2022-08-25T07:16:11.369Z,8.73
2022-08-25T07:18:38.376Z,9.82
2022-08-25T07:21:05.720Z,8.90
2022-08-25T07:23:35.432Z,9.80
2022-08-25T07:26:36.307Z,7.50
2022-08-25T07:29:00.781Z,5.63
2022-08-25T07:31:29.482Z,5.75
2022-08-25T07:34:14.707Z,6.20
2022-08-25T07:36:43.061Z,5.25
2022-08-25T07:39:09.540Z,4.33
2022-08-25T07:41:37.807Z,4.80
2022-08-25T07:44:05.635Z,5.57
2022-08-25T07:46:32.688Z,9.55
2022-08-25T07:49:00.257Z,7.43
2022-08-25T07:53:53.967Z,7.35
2022-08-25T07:56:20.316Z,10.07
2022-08-25T07:58:47.672Z,9.38
2022-08-25T08:01:19.706Z,5.88
2022-08-25T08:03:50.058Z,6.20
2022-08-25T08:06:20.956Z,4.70
2022-08-25T08:08:49.509Z,6.15
2022-08-25T08:11:26.539Z,7.15
2022-08-25T08:13:55.268Z,6.03
2022-08-25T08:16:24.827Z,4.37
2022-08-25T08:18:51.746Z,7.65
2022-08-25T08:21:26.105Z,5.60
2022-08-25T08:23:58.951Z,6.10
2022-08-25T08:26:36.391Z,4.72
2022-08-25T08:29:08.794Z,4.37
2022-08-25T08:31:36.465Z,6.28
2022-08-25T08:34:03.715Z,8.45
2022-08-25T08:36:30.089Z,5.80
2022-08-25T08:38:56.440Z,4.32
2022-08-25T08:44:46.203Z,5.90
2022-08-25T08:47:40.018Z,7.82
2022-08-25T08:50:27.971Z,6.90
2022-08-25T08:53:15.696Z,7.35
2022-08-25T08:55:48.325Z,7.30
2022-08-25T08:58:28.620Z,5.30
2022-08-25T09:00:58.202Z,5.13
2022-08-25T09:03:31.791Z,5.88
2022-08-25T09:06:03.406Z,4.50
2022-08-25T09:08:33.437Z,6.37
2022-08-25T09:11:18.911Z,5.72
2022-08-25T09:14:18.415Z,8.25
2022-08-25T09:16:55.324Z,4.95
2022-08-25T09:19:28.861Z,6.65
2022-08-25T09:22:04.465Z,9.10
2022-08-25T09:25:08.834Z,7.40
2022-08-25T09:28:05.939Z,5.25
2022-08-25T09:30:58.021Z,7.60
2022-08-25T09:33:27.030Z,10.90
2022-08-25T09:35:55.066Z,11.43
2022-08-25T09:38:26.166Z,4.43
2022-08-25T09:40:57.288Z,19.30
2022-08-25T09:43:40.270Z,10.13
2022-08-25T09:46:10.438Z,6.47
2022-08-25T09:49:07.718Z,5.20
2022-08-25T09:51:43.073Z,4.93
2022-08-25T09:54:12.635Z,3.53
2022-08-25T09:56:52.717Z,5.47
2022-08-25T09:59:35.184Z,5.15
2022-08-25T10:02:05.873Z,5.23
2022-08-25T10:04:40.092Z,5.82
2022-08-25T10:07:25.325Z,7.97
2022-08-25T10:09:56.747Z,7.93
2022-08-25T10:12:31.105Z,5.82
2022-08-25T10:14:57.542Z,12.07
2022-08-25T10:17:29.980Z,11.02
2022-08-25T10:20:11.528Z,3.67
2022-08-25T10:22:40.661Z,10.32
2022-08-25T10:25:10.695Z,6.25
2022-08-25T10:27:58.453Z,7.67
2022-08-25T10:30:42.861Z,4.03
2022-08-25T10:33:30.946Z,13.27
2022-08-25T10:36:04.527Z,6.35
2022-08-25T10:38:47.554Z,8.05
2022-08-25T10:41:35.711Z,7.73
2022-08-25T10:44:46.521Z,5.05
2022-08-25T10:47:31.569Z,3.97
2022-08-25T10:50:23.491Z,6.82
2022-08-25T10:53:19.038Z,4.55
2022-08-25T10:55:55.178Z,5.20
2022-08-25T10:58:36.947Z,4.05
2022-08-25T11:01:28.846Z,3.45
2022-08-25T11:04:04.899Z,4.10
2022-08-25T11:06:53.062Z,4.78
2022-08-25T11:09:33.115Z,3.43
2022-08-25T11:12:08.665Z,5.57
2022-08-25T11:14:40.183Z,7.28
2022-08-25T11:17:23.979Z,3.15
2022-08-25T11:19:57.466Z,4.55
2022-08-25T11:22:45.944Z,7.37
2022-08-25T11:25:26.087Z,5.10
2022-08-25T11:28:03.083Z,6.65
2022-08-25T11:30:30.275Z,4.30
2022-08-25T11:32:57.764Z,3.15
2022-08-25T11:35:33.958Z,2.67
2022-08-25T11:38:12.446Z,6.07
2022-08-25T11:41:12.996Z,3.38
2022-08-25T11:43:54.651Z,5.90
2022-08-25T11:46:58.672Z,4.32
2022-08-25T11:49:37.451Z,4.57
2022-08-25T11:52:30.754Z,4.47
2022-08-25T11:55:14.805Z,9.63
2022-08-25T11:57:42.678Z,3.90
2022-08-25T12:00:36.989Z,9.45
2022-08-25T12:03:45.963Z,35.63
2022-08-25T12:06:29.432Z,7.07
2022-08-25T12:09:05.345Z,6.60
2022-08-25T12:11:37.685Z,7.88
2022-08-25T12:14:13.735Z,3.60
2022-08-25T12:17:04.668Z,5.97
2022-08-25T12:19:34.085Z,5.20
2022-08-25T12:22:04.086Z,57.92
2022-08-25T12:24:47.546Z,13.50
2022-08-25T12:27:28.139Z,25.92
2022-08-25T12:30:18.482Z,9.13
2022-08-25T12:33:17.612Z,19.90
2022-08-25T12:35:57.788Z,15.05
2022-08-25T12:38:43.574Z,24.38
2022-08-25T12:41:18.523Z,20.35
2022-08-25T12:43:48.016Z,5.47
2022-08-25T12:46:23.755Z,7.97
2022-08-25T12:49:01.515Z,3.63
2022-08-25T12:51:33.881Z,3.20
2022-08-25T12:54:22.444Z,3.17
2022-08-25T12:56:59.228Z,8.20
2022-08-25T12:59:37.430Z,4.18
2022-08-25T13:02:15.778Z,4.63
2022-08-25T13:05:01.554Z,3.80
2022-08-25T13:07:48.047Z,3.22
2022-08-25T13:10:42.511Z,3.70
2022-08-25T13:13:08.969Z,7.05
2022-08-25T13:15:41.764Z,6.45
2022-08-25T13:18:26.347Z,4.25
2022-08-25T13:21:13.528Z,4.68
2022-08-25T13:23:44.041Z,18.23
2022-08-25T13:26:15.354Z,21.30
2022-08-25T13:28:50.385Z,5.20
2022-08-25T13:31:28.142Z,4.32
2022-08-25T13:34:00.074Z,3.22
2022-08-25T13:36:54.297Z,4.00
2022-08-25T13:39:45.703Z,6.03
2022-08-25T13:42:17.487Z,7.18
2022-08-25T13:44:51.927Z,4.30
2022-08-25T13:47:43.786Z,3.30
2022-08-25T13:50:27.030Z,4.57
2022-08-25T13:53:21.493Z,4.50
2022-08-25T13:55:53.072Z,4.28
2022-08-25T13:58:39.487Z,2.80
2022-08-25T14:01:22.748Z,3.20
2022-08-25T14:04:39.525Z,4.10
2022-08-25T14:07:23.116Z,3.85
2022-08-25T14:09:52.344Z,3.30
2022-08-25T14:12:44.823Z,4.05
2022-08-25T14:15:17.642Z,5.65
2022-08-25T14:17:48.889Z,2.87
2022-08-25T14:20:28.695Z,4.57
2022-08-25T14:23:09.793Z,5.32
2022-08-25T14:25:36.848Z,3.25
2022-08-25T14:28:13.809Z,7.82
2022-08-25T14:30:46.090Z,5.77
2022-08-25T14:33:14.301Z,5.25
2022-08-25T14:35:43.555Z,5.20
2022-08-25T14:38:11.435Z,3.42
2022-08-25T14:40:39.362Z,2.75
2022-08-25T14:43:10.115Z,3.60
2022-08-25T14:45:40.088Z,6.25
2022-08-25T14:48:10.439Z,3.47
2022-08-25T14:50:37.381Z,4.18
2022-08-25T14:53:03.981Z,4.63
2022-08-25T14:55:32.193Z,5.37
2022-08-25T14:57:59.360Z,4.18
2022-08-25T15:00:26.399Z,5.38
2022-08-25T15:02:54.829Z,3.00
2022-08-25T15:05:26.878Z,5.63
2022-08-25T15:08:13.102Z,2.93
2022-08-25T15:10:40.275Z,3.85
2022-08-25T15:13:06.970Z,3.67
2022-08-25T15:15:38.036Z,6.07
2022-08-25T15:18:05.342Z,3.08
2022-08-25T15:20:32.646Z,3.07
2022-08-25T15:22:59.050Z,3.17
2022-08-25T15:25:25.528Z,4.10
2022-08-25T15:27:52.016Z,4.60
2022-08-25T15:30:18.523Z,5.38
2022-08-25T15:32:44.921Z,3.27
2022-08-25T15:35:15.198Z,4.32
2022-08-25T15:37:42.125Z,3.30
2022-08-25T15:40:09.112Z,3.53
2022-08-25T15:42:37.772Z,4.25
2022-08-25T15:45:10.354Z,3.93
2022-08-25T15:47:36.944Z,4.88
2022-08-25T15:50:14.527Z,3.33
2022-08-25T15:52:46.673Z,5.55
2022-08-25T15:55:14.916Z,5.05
2022-08-25T15:57:42.289Z,8.60
2022-08-25T16:00:13.699Z,7.40
2022-08-25T16:02:44.739Z,7.03
2022-08-25T16:05:12.068Z,4.05
2022-08-25T16:07:40.115Z,4.60
2022-08-25T16:10:07.044Z,4.70
2022-08-25T16:12:33.489Z,3.78
2022-08-25T16:14:59.908Z,4.70
2022-08-25T16:17:26.631Z,4.00
2022-08-25T16:19:52.974Z,3.13
2022-08-25T16:22:19.326Z,3.57
2022-08-25T16:24:45.730Z,5.72
2022-08-25T16:27:12.995Z,3.53
2022-08-25T16:29:44.081Z,3.70
2022-08-25T16:32:13.301Z,3.17
2022-08-25T16:34:40.788Z,5.50
2022-08-25T16:37:08.524Z,3.65
2022-08-25T16:39:35.651Z,6.60
2022-08-25T16:42:02.061Z,6.35
2022-08-25T16:44:28.486Z,3.70
2022-08-25T16:46:55.274Z,5.80
2022-08-25T16:49:24.246Z,3.88
2022-08-25T16:51:57.228Z,4.75
2022-08-25T16:54:42.630Z,4.72
2022-08-25T16:57:09.020Z,5.30
2022-08-25T16:59:35.680Z,3.60
2022-08-25T17:02:02.205Z,4.82
2022-08-25T17:04:32.003Z,5.18
2022-08-25T17:06:58.819Z,4.53
2022-08-25T17:09:25.176Z,3.17
2022-08-25T17:11:56.513Z,3.97
2022-08-25T17:14:23.043Z,3.85
2022-08-25T17:16:51.060Z,4.70
2022-08-25T17:19:17.757Z,2.92
2022-08-25T17:21:46.150Z,9.43
2022-08-25T17:24:13.707Z,5.90
2022-08-25T17:26:42.866Z,4.70
2022-08-25T17:29:11.497Z,5.43
2022-08-25T17:31:40.052Z,11.45
2022-08-25T17:34:10.552Z,6.93
2022-08-25T17:36:37.271Z,10.43
2022-08-25T17:39:04.485Z,9.95
2022-08-25T17:41:33.495Z,7.53
2022-08-25T17:44:04.672Z,10.05
2022-08-25T17:46:31.148Z,7.53
2022-08-25T17:48:57.648Z,7.20
2022-08-25T17:51:25.204Z,6.72
2022-08-25T17:53:52.720Z,8.52
2022-08-25T17:56:21.877Z,9.15
2022-08-25T17:58:49.883Z,7.22
2022-08-25T18:01:22.375Z,9.73
2022-08-25T18:03:49.735Z,8.40
2022-08-25T18:06:17.316Z,13.63
2022-08-25T18:08:44.993Z,6.88
2022-08-25T18:11:19.676Z,8.43
2022-08-25T18:13:46.686Z,10.03
2022-08-25T18:16:14.099Z,9.73
2022-08-25T18:18:41.348Z,7.95
2022-08-25T18:21:17.853Z,11.60
2022-08-25T18:23:45.711Z,8.90
2022-08-25T18:26:14.727Z,11.53
2022-08-25T18:28:43.925Z,12.32
2022-08-25T18:31:11.978Z,11.10
2022-08-25T18:33:41.882Z,12.70
2022-08-25T18:36:09.762Z,13.10
2022-08-25T18:38:58.254Z,8.07
2022-08-25T18:41:26.094Z,7.63
2022-08-25T18:43:53.004Z,11.55
2022-08-25T18:46:19.617Z,10.82
2022-08-25T18:48:49.435Z,9.00
2022-08-25T18:51:22.849Z,9.47
2022-08-25T18:53:51.044Z,8.82
2022-08-25T18:56:19.165Z,12.68
2022-08-25T18:58:46.732Z,13.88
2022-08-25T19:01:18.266Z,10.50
2022-08-25T19:03:45.720Z,12.83
2022-08-25T19:06:12.323Z,13.02
2022-08-25T19:08:41.935Z,15.82
2022-08-25T19:11:09.662Z,16.23
2022-08-25T19:13:36.268Z,17.17
2022-08-25T19:16:13.837Z,20.43
2022-08-25T19:18:45.236Z,19.30
2022-08-25T19:21:11.933Z,26.27
2022-08-25T19:23:39.044Z,25.52
2022-08-25T19:26:07.795Z,25.83
2022-08-25T19:28:40.323Z,23.73
2022-08-25T19:31:12.544Z,26.20
2022-08-25T19:33:44.579Z,27.17
2022-08-25T19:36:12.737Z,25.80
2022-08-25T19:38:39.299Z,30.20
2022-08-25T19:41:14.067Z,28.17
2022-08-25T19:43:55.735Z,30.75
2022-08-25T19:46:32.963Z,30.95
2022-08-25T19:49:06.334Z,32.58
2022-08-25T19:51:34.661Z,37.10
2022-08-25T19:54:02.916Z,37.10
2022-08-25T19:56:30.963Z,37.15
2022-08-25T19:58:57.351Z,32.38
2022-08-25T20:01:24.244Z,35.40
2022-08-25T20:03:52.067Z,35.05
2022-08-25T20:06:18.959Z,35.77
2022-08-25T20:08:45.364Z,33.50
2022-08-25T20:11:12.740Z,33.85
2022-08-25T20:13:39.404Z,33.28
2022-08-25T20:16:05.933Z,33.08
2022-08-25T20:18:32.485Z,33.90
2022-08-25T20:20:58.998Z,31.75
2022-08-25T20:23:43.993Z,30.15
2022-08-25T20:26:10.382Z,28.00
2022-08-25T20:28:37.005Z,29.25
2022-08-25T20:31:03.471Z,27.10
2022-08-25T20:33:29.911Z,25.63
2022-08-25T20:35:56.664Z,23.80
2022-08-25T20:38:24.735Z,26.15
2022-08-25T20:40:53.133Z,26.23
2022-08-25T20:43:20.691Z,26.10
2022-08-25T20:45:47.361Z,23.55
2022-08-25T20:48:13.761Z,22.77
2022-08-25T20:50:40.176Z,23.85
2022-08-25T20:53:10.250Z,24.05
2022-08-25T20:55:43.714Z,20.37
2022-08-25T20:58:10.434Z,21.30
2022-08-25T21:00:36.823Z,24.13
2022-08-25T21:03:03.262Z,23.15
2022-08-25T21:05:29.968Z,24.67
2022-08-25T21:07:56.394Z,24.80
2022-08-25T21:10:23.424Z,20.42
2022-08-25T21:12:53.556Z,23.08
2022-08-25T21:15:20.404Z,21.33
2022-08-25T21:17:53.079Z,24.15
2022-08-25T21:20:23.601Z,25.63
2022-08-25T21:22:50.372Z,20.35
2022-08-25T21:25:18.047Z,18.60
2022-08-25T21:27:44.849Z,21.85
2022-08-25T21:30:14.810Z,20.90
2022-08-25T21:32:53.498Z,21.47
2022-08-25T21:35:21.191Z,21.63
2022-08-25T21:37:48.944Z,19.75
2022-08-25T21:40:20.905Z,23.70
2022-08-25T21:42:47.293Z,20.17
2022-08-25T21:45:14.021Z,25.17
2022-08-25T21:47:42.366Z,20.15
2022-08-25T21:50:11.250Z,18.73
2022-08-25T21:52:37.711Z,18.38
2022-08-25T21:55:06.026Z,17.13
2022-08-25T21:57:32.677Z,17.40
2022-08-25T22:00:07.843Z,17.52
2022-08-25T22:02:35.519Z,17.00
2022-08-25T22:05:01.958Z,11.98
2022-08-25T22:07:29.050Z,15.98
2022-08-25T22:10:01.119Z,14.07
2022-08-25T22:12:27.569Z,13.15
2022-08-25T22:14:53.969Z,12.70
2022-08-25T22:17:24.237Z,14.82
2022-08-25T22:19:53.650Z,16.63
2022-08-25T22:22:20.964Z,11.80
2022-08-25T22:24:47.574Z,12.82
2022-08-25T22:27:15.801Z,9.75
2022-08-25T22:29:43.763Z,12.48
2022-08-25T22:32:10.656Z,12.73
2022-08-25T22:34:40.324Z,13.53
2022-08-25T22:37:06.743Z,9.95
2022-08-25T22:39:34.847Z,11.35
2022-08-25T22:42:02.063Z,10.35
2022-08-25T22:44:28.530Z,11.93
2022-08-25T22:46:54.965Z,8.23
2022-08-25T22:49:21.658Z,10.98
2022-08-25T22:51:48.154Z,10.77
2022-08-25T22:54:15.612Z,11.95
2022-08-25T22:56:42.227Z,9.75
2022-08-25T22:59:11.677Z,10.70
2022-08-25T23:01:38.692Z,11.27
2022-08-25T23:04:06.654Z,9.65
2022-08-25T23:06:34.397Z,6.82
2022-08-25T23:09:05.832Z,10.15
2022-08-25T23:11:32.381Z,9.87
2022-08-25T23:14:05.365Z,8.82
2022-08-25T23:16:32.842Z,7.68
2022-08-25T23:18:59.707Z,6.05
2022-08-25T23:21:45.339Z,7.35
2022-08-25T23:24:13.271Z,7.87
2022-08-25T23:26:42.571Z,11.10
2022-08-25T23:29:17.790Z,4.30
2022-08-25T23:31:45.835Z,7.05
2022-08-25T23:34:14.065Z,9.43
2022-08-25T23:36:40.514Z,7.97
2022-08-25T23:39:07.897Z,5.35
2022-08-25T23:41:36.856Z,6.10
2022-08-25T23:44:05.257Z,6.88
2022-08-25T23:46:32.180Z,6.80
2022-08-25T23:48:58.549Z,5.50
2022-08-25T23:51:29.788Z,7.00
2022-08-25T23:53:57.296Z,7.55
2022-08-25T23:56:25.809Z,9.40
2022-08-25T23:58:52.239Z,10.38
